Flight Track Log - Related Links

Times and Time Zones

All times are in EDT time to prevent confusion due to time zone crossing. See the TCF6008 flight status page for this flight to view local times or setup timezone preferences in your user account.

Time Position Orientation Groundspeed Altitude Reporting Facility
EDT Latitude Longitude Course Direction KTS MPH feet Rate Location/Type
Thu 07:54:21 PM 42.9333 -87.9333 200° South 154 177 1,800  Level KMKE
Thu 07:55:52 PM 42.8833 -87.9167 166° South 245 282 4,300 1,945 Climbing KMKE
Thu 07:56:46 PM 42.8467 -87.8408 123° Southeast 262 302 6,500 2,431 Climbing Chicago Center
Thu 07:57:00 PM 42.8881 -87.2609 185° South  Level Estimated
Thu 07:57:48 PM 42.7747 -87.8086 162° South 284 327 9,000  Level Chicago Center
Thu 07:58:00 PM 42.8728 -87.1021 180° South  Level Estimated
Thu 07:58:50 PM 42.6758 -87.7914 173° South 305 351 12,000  Level Chicago Center
Thu 07:59:00 PM 42.8573 -86.9433 200° South  Level Estimated
Thu 07:59:52 PM 42.5886 -87.7519 162° South 326 375 14,200  Level Chicago Center
Thu 08:00:54 PM 42.5094 -87.7142 161° South 341 392 16,000 1,694 Climbing Chicago Center
Thu 08:01:56 PM 42.3933 -87.6594 161° South 367 422 17,700 1,500 Climbing Chicago Center
Thu 08:02:58 PM 42.2900 -87.6094 160° South 389 448 19,100 1,452 Climbing Chicago Center
Thu 08:04:00 PM 42.1878 -87.5442 155° Southeast 418 481 20,700 1,500 Climbing Chicago Center
Thu 08:05:02 PM 42.1403 -87.4081 115° Southeast 416 479 22,200 1,452 Climbing Chicago Center
Thu 08:06:04 PM 42.1317 -87.2517 94° East 417 480 23,700 1,440 Climbing Chicago Center
Thu 08:07:07 PM 42.1194 -87.0597 95° East 429 494 25,200 1,344 Climbing Chicago Center
Thu 08:08:09 PM 42.1086 -86.8953 95° East 441 507 26,500 1,161 Climbing Chicago Center
Thu 08:09:11 PM 42.0975 -86.7286 95° East 448 516 27,600 1,065 Climbing Chicago Center
Thu 08:10:13 PM 42.0892 -86.5725 94° East 461 531 28,700 1,258 Climbing Chicago Center
Thu 08:11:15 PM 42.0742 -86.3622 95° East 471 542 30,200 1,161 Climbing Chicago Center
Thu 08:12:17 PM 42.0622 -86.1833 95° East 478 550 31,100 919 Climbing Chicago Center
Thu 08:13:19 PM 42.0492 -86.0006 95° East 487 560 32,100 1,065 Climbing Chicago Center
Thu 08:14:21 PM 42.0375 -85.8336 95° East 487 560 33,300 1,113 Climbing Chicago Center
Thu 08:15:23 PM 42.0208 -85.6175 96° East 488 562 34,400 823 Climbing Chicago Center
Thu 08:16:25 PM 42.0067 -85.4364 96° East 490 564 35,000 409 Climbing Chicago Center
Thu 08:16:51 PM 42.0042 -85.3650 93° East 516 594 35,000  Level Cleveland Center
Thu 08:17:51 PM 41.9908 -85.1822 96° East 528 608 35,000  Level Cleveland Center
Thu 08:18:51 PM 41.9750 -84.9994 97° East 505 581 35,000  Level Cleveland Center
Thu 08:19:51 PM 41.9611 -84.8169 96° East 494 568 35,000  Level Cleveland Center
Thu 08:20:51 PM 41.9425 -84.6342 98° East 488 562 35,000  Level Cleveland Center
Thu 08:21:51 PM 41.9322 -84.4547 94° East 488 562 35,000  Level Cleveland Center
Thu 08:22:51 PM 41.9114 -84.2583 98° East 488 562 35,000  Level Cleveland Center
Thu 08:23:51 PM 41.8944 -84.0731 97° East 488 562 35,000  Level Cleveland Center
Thu 08:24:51 PM 41.8767 -83.8936 98° East 488 562 35,000  Level Cleveland Center
Thu 08:25:51 PM 41.8631 -83.7117 96° East 488 562 35,000  Level Cleveland Center
Thu 08:26:51 PM 41.8450 -83.5322 98° East 488 562 35,000  Level Cleveland Center
Thu 08:27:51 PM 41.8322 -83.3700 96° East 488 562 35,000  Level Cleveland Center
Thu 08:28:51 PM 41.8136 -83.1881 98° East 488 562 35,000  Level Cleveland Center
Thu 08:29:51 PM 41.7947 -83.0092 98° East 488 562 35,000  Level Cleveland Center
Thu 08:30:51 PM 41.7775 -82.8275 97° East 488 562 35,000  Level Cleveland Center
Thu 08:31:51 PM 41.7600 -82.6486 97° East 488 562 35,000  Level Cleveland Center
Thu 08:32:51 PM 41.7422 -82.4700 98° East 482 555 35,000  Level Cleveland Center
Thu 08:33:51 PM 41.7242 -82.2886 98° East 487 560 35,000  Level Cleveland Center
Thu 08:34:51 PM 41.7019 -82.0906 98° East 487 560 35,000  Level Cleveland Center
Thu 08:35:51 PM 41.6833 -81.9094 98° East 487 560 35,000  Level Cleveland Center
Thu 08:36:51 PM 41.6644 -81.7283 98° East 487 560 35,000  Level Cleveland Center
Thu 08:37:51 PM 41.6433 -81.5500 99° East 487 560 35,000  Level Cleveland Center
Thu 08:38:51 PM 41.6236 -81.3719 98° East 482 555 35,000  Level Cleveland Center
Thu 08:39:51 PM 41.6039 -81.2133 99° East 482 555 35,000  Level Cleveland Center
Thu 08:40:51 PM 41.5858 -81.0328 98° East 489 563 35,000  Level Cleveland Center
Thu 08:41:51 PM 41.5656 -80.8550 99° East 484 557 35,000  Level Cleveland Center
Thu 08:42:51 PM 41.5450 -80.6775 99° East 484 557 35,000  Level Cleveland Center
Thu 08:43:51 PM 41.5242 -80.5000 99° East 484 557 35,000  Level Cleveland Center
Thu 08:44:51 PM 41.4989 -80.3003 100° East 491 565 35,000  Level Cleveland Center
Thu 08:45:51 PM 41.4797 -80.1425 99° East 496 571 35,000  Level Cleveland Center
Thu 08:46:51 PM 41.4558 -79.9625 100° East 496 571 35,000  Level Cleveland Center
Thu 08:47:51 PM 41.4339 -79.7800 99° East 491 565 35,000  Level Cleveland Center
Thu 08:48:51 PM 41.4117 -79.6003 99° East 491 565 35,000  Level Cleveland Center
Thu 08:49:51 PM 41.3892 -79.4208 99° East 486 559 35,000  Level Cleveland Center
Thu 08:50:51 PM 41.3642 -79.2414 100° East 486 559 35,000  Level Cleveland Center
Thu 08:51:51 PM 41.3411 -79.0592 100° East 486 559 35,000  Level Cleveland Center
Thu 08:52:51 PM 41.3178 -78.8772 100° East 486 559 35,000  Level Cleveland Center
Thu 08:53:51 PM 41.2942 -78.7011 100° East 486 559 35,000  Level Cleveland Center
Thu 08:55:52 PM 41.2422 -78.3458 101° East 490 564 35,000 -663 Level New York Center
Thu 08:56:52 PM 41.2158 -78.1689 101° East 495 570 33,000 -992 Descending New York Center
Thu 08:57:53 PM 41.1936 -77.9872 99° East 495 570 33,000  Level New York Center
Thu 08:58:51 PM 41.1731 -77.8114 99° East 495 570 33,000  Level New York Center
Thu 08:59:52 PM 41.1503 -77.6325 100° East 490 564 33,000  Level New York Center
Thu 09:00:53 PM 41.1272 -77.4511 100° East 490 564 33,000  Level New York Center
Thu 09:01:51 PM 41.1003 -77.2583 100° East 490 564 33,000 -1,160 Level New York Center
Thu 09:02:52 PM 41.0767 -77.0772 100° East 490 564 30,700 -2,450 Descending New York Center
Thu 09:03:51 PM 41.0528 -76.8989 100° East 490 564 28,100 -2,622 Descending New York Center
Thu 09:04:51 PM 41.0283 -76.7233 100° East 490 564 25,500 -2,500 Descending New York Center
Thu 09:05:51 PM 40.9969 -76.5583 104° East 478 550 23,100 -2,350 Descending New York Center
Thu 09:06:51 PM 40.9586 -76.4039 108° East 457 526 20,800 -2,400 Descending New York Center
Thu 09:07:51 PM 40.9239 -76.2581 107° East 426 490 18,300 -2,083 Descending New York Center
Thu 09:08:52 PM 40.8889 -76.1125 108° East 412 474 16,600 -1,525 Descending New York Center
Thu 09:09:53 PM 40.8553 -75.9756 108° East 407 468 15,200 -1,412 Descending New York Center
Thu 09:10:51 PM 40.8217 -75.8386 108° East 401 461 13,800 -1,109 Descending New York Center
Thu 09:11:52 PM 40.7933 -75.7186 107° East 389 448 13,000 -397 Descending New York Center
Thu 09:12:52 PM 40.7611 -75.5903 108° East 378 435 13,000  Level New York Center
Thu 09:13:51 PM 40.7292 -75.4564 107° East 378 435 13,000  Level New York Center
Thu 09:14:53 PM 40.6953 -75.3064 107° East 384 442 13,000  Level New York Center
Thu 09:15:51 PM 40.6728 -75.1844 104° East 384 442 13,000 -1,068 Level New York Center
Thu 09:16:51 PM 40.6103 -75.0739 127° Southeast 355 409 10,900 -1,488 Descending New York Center
Thu 09:17:52 PM 40.5614 -74.9833 125° Southeast 325 374 10,000 -446 Descending New York Center
Thu 09:18:52 PM 40.5297 -74.8803 112° Southeast 305 351 10,000  Level New York Center
Thu 09:19:10 PM 40.5167 -74.8500 120° Southeast 306 352 10,000  Level New York TRACON
Thu 09:20:11 PM 40.4833 -74.7333 111° Southeast 307 353 10,000  Level New York TRACON
Thu 09:21:10 PM 40.4500 -74.6333 114° Southeast 306 352 10,000  Level New York TRACON
Thu 09:22:10 PM 40.4333 -74.5333 102° East 306 352 10,000 -574 Level New York TRACON
Thu 09:23:05 PM 40.4500 -74.4333 78° East 301 346 8,900 -1,000 Descending New York TRACON
Thu 09:24:10 PM 40.4833 -74.3167 69° East 294 338 8,000 -432 Descending New York TRACON
Thu 09:25:10 PM 40.5167 -74.2167 66° East 293 337 8,000 -550 Level New York TRACON
Thu 09:26:10 PM 40.5333 -74.1167 78° East 286 329 6,900 -1,450 Descending New York TRACON
Thu 09:27:10 PM 40.5833 -74.0500 45° Northeast 286 329 5,100 -1,513 Descending New York TRACON
Thu 09:28:05 PM 40.6500 -74.0333 11° North 263 303 4,000 -574 Descending New York TRACON
Thu 09:29:05 PM 40.7167 -74.0167 11° North 249 287 4,000  Level New York TRACON
Thu 09:30:10 PM 40.7833 -74.0000 11° North 228 262 4,000  Level New York TRACON
Thu 09:31:11 PM 40.8333 -73.9667 27° Northeast 228 262 4,000  Level New York TRACON
Thu 09:32:11 PM 40.9000 -73.9333 21° North 229 264 4,000  Level New York TRACON
Thu 09:33:11 PM 40.9500 -73.8833 37° Northeast 201 231 4,000  Level New York TRACON
Thu 09:34:17 PM 41.0000 -73.8333 37° Northeast 199 229 4,000 -476 Level New York TRACON
Thu 09:35:17 PM 40.9833 -73.7833 114° Southeast 194 223 3,000 -504 Descending New York TRACON
Thu 09:36:16 PM 40.9333 -73.7667 166° South 185 213 3,000 -350 Level New York TRACON
Thu 09:37:17 PM 40.8833 -73.7833 194° South 173 199 2,300 -744 Descending New York TRACON
Thu 09:38:17 PM 40.8500 -73.8167 217° Southwest 153 176 1,500 -756 Descending New York TRACON
Thu 09:39:16 PM 40.8167 -73.8500 217° Southwest 118 136 800 -712 Descending New York TRACON

Login

Don't have an account? Register now (free) for customized features, flight alerts, and more!